createdAt,value
2023-03-28T00:01:34.802Z,2.05
2023-03-28T00:04:07.271Z,2.04
2023-03-28T00:06:41.806Z,2.00
2023-03-28T00:09:14.481Z,1.97
2023-03-28T00:11:47.187Z,1.94
2023-03-28T00:14:19.357Z,1.91
2023-03-28T00:16:52.325Z,1.87
2023-03-28T00:19:24.418Z,1.83
2023-03-28T00:21:57.618Z,1.78
2023-03-28T00:24:30.061Z,1.76
2023-03-28T00:27:02.290Z,1.73
2023-03-28T00:29:34.885Z,1.72
2023-03-28T00:32:07.841Z,1.72
2023-03-28T00:34:40.257Z,1.71
2023-03-28T00:37:17.409Z,1.68
2023-03-28T00:39:51.092Z,1.67
2023-03-28T00:42:25.389Z,1.67
2023-03-28T00:44:59.579Z,1.76
2023-03-28T00:47:45.112Z,1.79
2023-03-28T00:50:21.338Z,1.81
2023-03-28T00:52:59.227Z,1.86
2023-03-28T00:55:37.861Z,1.93
2023-03-28T00:58:12.487Z,1.94
2023-03-28T01:00:46.987Z,1.96
2023-03-28T01:03:22.784Z,1.96
2023-03-28T01:05:56.867Z,1.96
2023-03-28T01:08:39.530Z,1.93
2023-03-28T01:11:13.276Z,1.91
2023-03-28T01:13:49.109Z,1.91
2023-03-28T01:16:23.360Z,1.93
2023-03-28T01:19:02.186Z,1.94
2023-03-28T01:22:17.176Z,1.93
2023-03-28T01:25:31.076Z,1.93
2023-03-28T01:28:09.130Z,1.91
2023-03-28T01:31:05.745Z,1.87
2023-03-28T01:34:19.633Z,1.83
2023-03-28T01:37:06.104Z,1.80
2023-03-28T01:39:58.796Z,1.79
2023-03-28T01:42:42.818Z,1.79
2023-03-28T01:45:20.311Z,1.79
2023-03-28T01:47:59.464Z,1.80
2023-03-28T01:50:37.074Z,1.81
2023-03-28T01:53:18.510Z,1.82
2023-03-28T01:55:55.438Z,1.92
2023-03-28T01:58:32.727Z,1.96
2023-03-28T02:01:16.816Z,2.00
2023-03-28T02:03:52.953Z,2.01
2023-03-28T02:06:39.890Z,2.01
2023-03-28T02:09:19.873Z,2.00
2023-03-28T02:12:17.033Z,2.01
2023-03-28T02:15:18.588Z,2.01
2023-03-28T02:18:16.803Z,2.01
2023-03-28T02:21:16.328Z,2.01
2023-03-28T02:23:57.452Z,2.01
2023-03-28T02:26:48.605Z,2.00
2023-03-28T02:29:33.185Z,1.99
2023-03-28T02:32:36.469Z,1.98
2023-03-28T02:35:10.103Z,1.93
2023-03-28T02:37:54.890Z,1.89
2023-03-28T02:40:42.346Z,1.86
2023-03-28T02:43:43.671Z,1.82
2023-03-28T02:46:29.575Z,1.78
2023-03-28T02:49:24.230Z,1.74
2023-03-28T02:52:09.387Z,1.71
2023-03-28T02:54:44.321Z,1.72
2023-03-28T02:57:42.897Z,1.68
2023-03-28T03:00:19.874Z,1.65
2023-03-28T03:02:54.206Z,1.64
2023-03-28T03:05:26.536Z,1.64
2023-03-28T03:07:58.893Z,1.61
2023-03-28T03:10:31.193Z,1.60
2023-03-28T03:13:03.345Z,1.67
2023-03-28T03:15:35.869Z,1.70
2023-03-28T03:18:23.368Z,1.70
2023-03-28T03:20:55.941Z,1.74
2023-03-28T03:23:28.087Z,1.81
2023-03-28T03:26:04.084Z,1.84
2023-03-28T03:28:46.400Z,1.85
2023-03-28T03:31:19.802Z,1.84
2023-03-28T03:34:03.726Z,1.84
2023-03-28T03:36:40.624Z,1.84
2023-03-28T03:39:12.910Z,1.85
2023-03-28T03:41:45.051Z,1.84
2023-03-28T03:44:17.207Z,1.83
2023-03-28T03:46:49.408Z,1.85
2023-03-28T03:49:21.547Z,1.85
2023-03-28T03:51:53.798Z,1.85
2023-03-28T03:54:26.218Z,1.85
2023-03-28T03:56:58.438Z,1.84
2023-03-28T03:59:30.935Z,1.79
2023-03-28T04:02:03.643Z,1.78
2023-03-28T04:04:49.089Z,1.88
2023-03-28T04:07:29.971Z,1.93
2023-03-28T04:10:02.132Z,1.97
2023-03-28T04:12:40.477Z,2.02
2023-03-28T04:15:13.523Z,2.07
2023-03-28T04:17:45.661Z,2.13
2023-03-28T04:20:19.984Z,2.16
2023-03-28T04:23:10.593Z,2.17
2023-03-28T04:25:43.696Z,2.15
2023-03-28T04:28:19.907Z,2.16
2023-03-28T04:31:04.503Z,2.15
2023-03-28T04:33:45.413Z,2.15
2023-03-28T04:36:19.009Z,2.13
2023-03-28T04:38:58.416Z,2.10
2023-03-28T04:41:50.501Z,2.07
2023-03-28T04:44:34.337Z,2.06
2023-03-28T04:47:13.055Z,2.05
2023-03-28T04:49:45.316Z,2.04
2023-03-28T04:52:18.734Z,2.06
2023-03-28T04:54:52.149Z,2.04
2023-03-28T04:57:28.249Z,2.05
2023-03-28T05:00:17.249Z,2.17
2023-03-28T05:03:18.587Z,2.19
2023-03-28T05:06:00.702Z,2.22
2023-03-28T05:08:32.978Z,2.25
2023-03-28T05:11:05.748Z,2.27
2023-03-28T05:13:38.350Z,2.27
2023-03-28T05:16:16.899Z,2.27
2023-03-28T05:19:15.160Z,2.27
2023-03-28T05:21:57.117Z,2.26
2023-03-28T05:24:29.311Z,2.25
2023-03-28T05:27:01.678Z,2.26
2023-03-28T05:29:33.783Z,2.26
2023-03-28T05:32:06.807Z,2.25
2023-03-28T05:34:39.412Z,2.24
2023-03-28T05:37:11.865Z,2.24
2023-03-28T05:39:50.321Z,2.25
2023-03-28T05:42:24.322Z,2.24
2023-03-28T05:44:56.529Z,2.22
2023-03-28T05:47:29.034Z,2.24
2023-03-28T05:50:02.526Z,2.34
2023-03-28T05:52:35.340Z,2.41
2023-03-28T05:55:11.411Z,2.47
2023-03-28T05:57:44.321Z,2.54
2023-03-28T06:00:19.948Z,2.59
2023-03-28T06:02:54.940Z,2.67
2023-03-28T06:05:36.101Z,2.75
2023-03-28T06:08:09.650Z,2.83
2023-03-28T06:10:42.540Z,2.86
2023-03-28T06:13:35.098Z,2.91
2023-03-28T06:16:10.593Z,2.97
2023-03-28T06:18:42.911Z,3.04
2023-03-28T06:21:15.583Z,3.08
2023-03-28T06:23:51.822Z,3.14
2023-03-28T06:26:31.402Z,3.18
2023-03-28T06:29:03.971Z,3.21
2023-03-28T06:31:47.299Z,3.25
2023-03-28T06:34:19.772Z,3.28
2023-03-28T06:36:57.825Z,3.30
2023-03-28T06:39:32.701Z,3.29
2023-03-28T06:42:05.275Z,3.30
2023-03-28T06:44:44.488Z,3.32
2023-03-28T06:47:24.126Z,3.32
2023-03-28T06:49:56.492Z,3.30
2023-03-28T06:52:43.007Z,3.30
2023-03-28T06:55:16.086Z,3.30
2023-03-28T06:57:48.474Z,3.32
2023-03-28T07:00:31.946Z,3.36
2023-03-28T07:03:23.149Z,3.39
2023-03-28T07:05:55.643Z,3.37
2023-03-28T07:08:28.524Z,3.37
2023-03-28T07:11:01.129Z,3.39
2023-03-28T07:13:34.162Z,3.40
2023-03-28T07:16:15.662Z,3.42
2023-03-28T07:18:48.169Z,3.46
2023-03-28T07:21:27.142Z,3.46
2023-03-28T07:24:01.348Z,3.46
2023-03-28T07:26:40.532Z,3.45
2023-03-28T07:29:14.265Z,3.46
2023-03-28T07:31:46.708Z,3.48
2023-03-28T07:34:20.416Z,3.51
2023-03-28T07:36:53.381Z,3.54
2023-03-28T07:39:43.835Z,3.54
2023-03-28T07:42:19.829Z,3.56
2023-03-28T07:44:52.606Z,3.59
2023-03-28T07:47:25.181Z,3.63
2023-03-28T07:49:57.885Z,3.69
2023-03-28T07:52:31.460Z,3.78
2023-03-28T07:55:04.095Z,3.89
2023-03-28T07:57:40.028Z,4.03
2023-03-28T08:00:25.477Z,4.21
2023-03-28T08:03:19.073Z,4.37
2023-03-28T08:05:52.765Z,4.54
2023-03-28T08:08:26.617Z,4.66
2023-03-28T08:11:12.372Z,4.68
2023-03-28T08:13:45.035Z,4.66
2023-03-28T08:16:24.195Z,4.65
2023-03-28T08:19:10.055Z,4.69
2023-03-28T08:21:50.342Z,4.74
2023-03-28T08:24:34.800Z,4.76
2023-03-28T08:27:15.098Z,4.75
2023-03-28T08:29:49.288Z,4.73
2023-03-28T08:32:22.243Z,4.70
2023-03-28T08:34:55.663Z,4.67
2023-03-28T08:37:28.115Z,4.59
2023-03-28T08:40:01.818Z,4.54
2023-03-28T08:42:58.145Z,4.59
2023-03-28T08:45:47.882Z,4.74
2023-03-28T08:48:27.168Z,4.94
2023-03-28T08:51:04.585Z,5.09
2023-03-28T08:53:43.999Z,5.20
2023-03-28T08:56:17.631Z,5.26
2023-03-28T08:58:59.723Z,5.23
2023-03-28T09:01:34.192Z,5.14
2023-03-28T09:04:07.607Z,5.03
2023-03-28T09:06:45.654Z,4.95
2023-03-28T09:09:38.461Z,4.88
2023-03-28T09:12:41.050Z,4.84
2023-03-28T09:15:31.796Z,4.77
2023-03-28T09:18:22.621Z,4.74
2023-03-28T09:21:01.978Z,4.74
2023-03-28T09:23:55.373Z,4.72
2023-03-28T09:26:49.141Z,4.71
2023-03-28T09:29:27.997Z,4.71
2023-03-28T09:32:04.384Z,4.72
2023-03-28T09:34:46.573Z,4.85
2023-03-28T09:37:36.579Z,5.06
2023-03-28T09:40:20.835Z,5.28
2023-03-28T09:43:20.809Z,5.52
2023-03-28T09:46:19.628Z,5.81
2023-03-28T09:49:05.771Z,6.07
2023-03-28T09:51:41.062Z,6.15
2023-03-28T09:54:14.247Z,6.09
2023-03-28T09:56:47.591Z,6.02
2023-03-28T09:59:32.125Z,5.92
2023-03-28T10:02:30.712Z,5.82
2023-03-28T10:05:22.867Z,5.84
2023-03-28T10:08:07.635Z,5.92
2023-03-28T10:11:02.841Z,5.94
2023-03-28T10:13:41.750Z,5.84
2023-03-28T10:16:18.141Z,5.71
2023-03-28T10:19:25.116Z,5.60
2023-03-28T10:22:08.669Z,5.51
2023-03-28T10:24:46.968Z,5.45
2023-03-28T10:27:25.076Z,5.44
2023-03-28T10:29:59.920Z,5.57
2023-03-28T10:32:36.721Z,5.79
2023-03-28T10:35:31.539Z,5.94
2023-03-28T10:38:18.267Z,6.06
2023-03-28T10:41:20.671Z,6.33
2023-03-28T10:44:33.055Z,6.54
2023-03-28T10:47:16.245Z,6.59
2023-03-28T10:49:56.545Z,6.58
2023-03-28T10:52:38.162Z,6.53
2023-03-28T10:55:17.984Z,6.47
2023-03-28T10:58:17.802Z,6.38
2023-03-28T11:01:02.558Z,6.33
2023-03-28T11:03:58.431Z,6.32
2023-03-28T11:06:37.735Z,6.29
2023-03-28T11:09:21.245Z,6.26
2023-03-28T11:12:32.316Z,6.27
2023-03-28T11:15:17.538Z,6.35
2023-03-28T11:18:04.320Z,6.48
2023-03-28T11:20:46.175Z,6.65
2023-03-28T11:23:41.804Z,6.69
2023-03-28T11:26:42.013Z,6.59
2023-03-28T11:29:53.242Z,6.39
2023-03-28T11:32:31.990Z,6.15
2023-03-28T11:35:14.544Z,5.94
2023-03-28T11:37:57.241Z,5.75
2023-03-28T11:40:36.561Z,5.65
2023-03-28T11:43:16.959Z,5.58
2023-03-28T11:45:55.227Z,5.58
2023-03-28T11:48:31.805Z,5.66
2023-03-28T11:51:13.366Z,5.81
2023-03-28T11:53:56.427Z,5.94
2023-03-28T11:56:50.436Z,6.16
2023-03-28T11:59:49.065Z,6.36
2023-03-28T12:02:38.392Z,6.36
2023-03-28T12:05:22.827Z,6.30
2023-03-28T12:08:04.409Z,6.16
2023-03-28T12:10:38.485Z,5.98
2023-03-28T12:13:22.503Z,5.83
2023-03-28T12:16:10.190Z,5.71
2023-03-28T12:18:47.351Z,5.65
2023-03-28T12:21:43.337Z,5.59
2023-03-28T12:24:26.810Z,5.56
2023-03-28T12:27:17.846Z,5.62
2023-03-28T12:29:59.370Z,5.63
2023-03-28T12:32:44.683Z,5.66
2023-03-28T12:35:25.197Z,5.58
2023-03-28T12:38:24.618Z,5.42
2023-03-28T12:41:07.641Z,5.30
2023-03-28T12:43:47.119Z,5.26
2023-03-28T12:46:28.204Z,5.27
2023-03-28T12:49:06.009Z,5.34
2023-03-28T12:51:43.936Z,5.52
2023-03-28T12:54:30.763Z,5.73
2023-03-28T12:57:18.928Z,5.93
2023-03-28T13:00:20.678Z,6.16
2023-03-28T13:03:27.137Z,6.32
2023-03-28T13:06:06.911Z,6.32
2023-03-28T13:08:51.826Z,6.24
2023-03-28T13:11:31.468Z,6.09
2023-03-28T13:14:21.093Z,5.86
2023-03-28T13:16:59.774Z,5.60
2023-03-28T13:19:51.329Z,5.45
2023-03-28T13:22:32.791Z,5.32
2023-03-28T13:25:27.460Z,5.29
2023-03-28T13:28:01.802Z,5.26
2023-03-28T13:30:34.280Z,5.25
2023-03-28T13:33:26.509Z,5.27
2023-03-28T13:36:22.214Z,5.34
2023-03-28T13:39:07.269Z,5.45
2023-03-28T13:41:59.435Z,5.59
2023-03-28T13:44:46.038Z,5.77
2023-03-28T13:47:25.494Z,5.91
2023-03-28T13:50:04.045Z,5.91
2023-03-28T13:52:36.796Z,5.85
2023-03-28T13:55:20.768Z,5.74
2023-03-28T13:57:53.987Z,5.62
2023-03-28T14:00:29.277Z,5.51
2023-03-28T14:03:05.659Z,5.42
2023-03-28T14:05:46.414Z,5.34
2023-03-28T14:08:26.498Z,5.30
2023-03-28T14:11:00.905Z,5.27
2023-03-28T14:13:33.646Z,5.23
2023-03-28T14:16:11.171Z,5.20
2023-03-28T14:18:48.052Z,5.24
2023-03-28T14:21:24.050Z,5.26
2023-03-28T14:24:01.856Z,5.30
2023-03-28T14:26:38.060Z,5.32
2023-03-28T14:29:14.566Z,5.32
2023-03-28T14:31:48.834Z,5.31
2023-03-28T14:34:25.618Z,5.27
2023-03-28T14:37:03.554Z,5.21
2023-03-28T14:39:39.169Z,5.14
2023-03-28T14:42:17.188Z,5.03
2023-03-28T14:44:54.302Z,4.91
2023-03-28T14:47:32.278Z,4.79
2023-03-28T14:50:05.705Z,4.71
2023-03-28T14:52:41.124Z,4.66
2023-03-28T14:55:19.978Z,4.67
2023-03-28T14:57:54.518Z,4.68
2023-03-28T15:00:34.515Z,4.68
2023-03-28T15:03:13.343Z,4.70
2023-03-28T15:05:48.415Z,4.70
2023-03-28T15:08:28.404Z,4.68
2023-03-28T15:11:03.698Z,4.67
2023-03-28T15:13:37.231Z,4.66
2023-03-28T15:16:16.861Z,4.64
2023-03-28T15:18:56.875Z,4.64
2023-03-28T15:21:29.352Z,4.69
2023-03-28T15:24:04.239Z,4.70
2023-03-28T15:26:36.451Z,4.64
2023-03-28T15:29:10.297Z,4.60
2023-03-28T15:31:43.142Z,4.59
2023-03-28T15:34:23.491Z,4.58
2023-03-28T15:37:02.211Z,4.60
2023-03-28T15:39:37.165Z,4.63
2023-03-28T15:42:28.475Z,4.65
2023-03-28T15:45:25.089Z,4.64
2023-03-28T15:47:58.061Z,4.62
2023-03-28T15:50:36.502Z,4.60
2023-03-28T15:53:14.560Z,4.53
2023-03-28T15:55:48.791Z,4.47
2023-03-28T15:58:23.487Z,4.45
2023-03-28T16:00:56.491Z,4.44
2023-03-28T16:03:34.718Z,4.47
2023-03-28T16:06:32.225Z,4.50
2023-03-28T16:09:19.412Z,4.52
2023-03-28T16:11:56.488Z,4.47
2023-03-28T16:14:49.901Z,4.42
2023-03-28T16:17:47.402Z,4.37
2023-03-28T16:20:31.895Z,4.33
2023-03-28T16:23:09.612Z,4.29
2023-03-28T16:25:42.133Z,4.27
2023-03-28T16:28:19.363Z,4.25
2023-03-28T16:30:53.141Z,4.25
2023-03-28T16:33:26.012Z,4.21
2023-03-28T16:35:59.012Z,4.20
2023-03-28T16:38:31.595Z,4.18
2023-03-28T16:41:04.227Z,4.17
2023-03-28T16:43:37.893Z,4.14
2023-03-28T16:46:12.359Z,4.12
2023-03-28T16:48:45.260Z,4.09
2023-03-28T16:51:17.713Z,4.06
2023-03-28T16:53:50.130Z,4.02
2023-03-28T16:56:26.979Z,4.01
2023-03-28T16:58:59.290Z,3.99
2023-03-28T17:01:31.716Z,3.98
2023-03-28T17:04:04.638Z,3.97
2023-03-28T17:06:37.084Z,3.97
2023-03-28T17:09:09.979Z,3.98
2023-03-28T17:11:43.002Z,4.00
2023-03-28T17:14:15.797Z,4.05
2023-03-28T17:16:48.210Z,4.05
2023-03-28T17:19:23.227Z,4.05
2023-03-28T17:21:56.630Z,4.06
2023-03-28T17:24:30.089Z,4.03
2023-03-28T17:27:02.439Z,4.03
2023-03-28T17:29:34.810Z,4.03
2023-03-28T17:32:08.304Z,4.04
2023-03-28T17:34:40.984Z,4.05
2023-03-28T17:37:13.343Z,4.05
2023-03-28T17:39:46.706Z,4.06
2023-03-28T17:42:19.261Z,4.07
2023-03-28T17:44:54.651Z,4.03
2023-03-28T17:47:27.088Z,3.98
2023-03-28T17:50:00.627Z,3.97
2023-03-28T17:52:33.206Z,3.97
2023-03-28T17:55:06.972Z,3.98
2023-03-28T17:57:39.473Z,3.98
2023-03-28T18:00:14.117Z,3.98
2023-03-28T18:02:48.449Z,3.96
2023-03-28T18:05:30.867Z,3.94
2023-03-28T18:08:04.385Z,3.93
2023-03-28T18:10:39.456Z,3.92
2023-03-28T18:13:11.971Z,3.91
2023-03-28T18:15:44.571Z,3.90
2023-03-28T18:18:17.541Z,3.89
2023-03-28T18:20:51.074Z,3.88
2023-03-28T18:23:23.423Z,3.84
2023-03-28T18:25:55.727Z,3.82
2023-03-28T18:28:28.248Z,3.79
2023-03-28T18:31:09.984Z,3.78
2023-03-28T18:33:44.159Z,3.75
2023-03-28T18:36:16.735Z,3.74
2023-03-28T18:38:50.041Z,3.71
2023-03-28T18:41:22.433Z,3.70
2023-03-28T18:43:54.849Z,3.69
2023-03-28T18:46:29.941Z,3.69
2023-03-28T18:49:03.002Z,3.67
2023-03-28T18:51:36.700Z,3.64
2023-03-28T18:54:09.227Z,3.63
2023-03-28T18:56:41.577Z,3.63
2023-03-28T18:59:15.193Z,3.60
2023-03-28T19:01:51.604Z,3.57
2023-03-28T19:04:27.941Z,3.55
2023-03-28T19:07:00.409Z,3.55
2023-03-28T19:09:32.932Z,3.53
2023-03-28T19:12:05.297Z,3.49
2023-03-28T19:14:37.598Z,3.46
2023-03-28T19:17:09.891Z,3.46
2023-03-28T19:19:42.187Z,3.45
2023-03-28T19:22:14.450Z,3.44
2023-03-28T19:24:46.749Z,3.42
2023-03-28T19:27:19.142Z,3.39
2023-03-28T19:29:51.493Z,3.38
2023-03-28T19:32:24.696Z,3.33
2023-03-28T19:34:57.359Z,3.29
2023-03-28T19:37:29.691Z,3.24
2023-03-28T19:40:05.655Z,3.20
2023-03-28T19:42:38.304Z,3.16
2023-03-28T19:45:12.855Z,3.15
2023-03-28T19:47:45.238Z,3.15
2023-03-28T19:50:17.880Z,3.14
2023-03-28T19:52:50.367Z,3.13
2023-03-28T19:55:22.807Z,3.12
2023-03-28T19:57:57.068Z,3.10
2023-03-28T20:00:29.458Z,3.06
2023-03-28T20:03:03.051Z,3.03
2023-03-28T20:05:44.681Z,3.00
2023-03-28T20:08:18.943Z,2.98
2023-03-28T20:11:58.612Z,2.99
2023-03-28T20:14:34.462Z,2.99
2023-03-28T20:17:07.049Z,2.97
2023-03-28T20:19:40.446Z,2.94
2023-03-28T20:22:12.739Z,2.91
2023-03-28T20:24:45.026Z,2.86
2023-03-28T20:27:18.170Z,2.81
2023-03-28T20:29:50.533Z,2.76
2023-03-28T20:32:22.937Z,2.75
2023-03-28T20:34:55.317Z,2.72
2023-03-28T20:37:28.533Z,2.69
2023-03-28T20:40:10.341Z,2.65
2023-03-28T20:42:42.777Z,2.63
2023-03-28T20:45:22.137Z,2.61
2023-03-28T20:47:57.078Z,2.59
2023-03-28T20:50:34.120Z,2.59
2023-03-28T20:53:08.034Z,2.58
2023-03-28T20:55:40.534Z,2.59
2023-03-28T20:58:12.836Z,2.58
2023-03-28T21:00:46.592Z,2.57
2023-03-28T21:03:19.180Z,2.56
2023-03-28T21:05:53.253Z,2.54
2023-03-28T21:08:28.025Z,2.53
2023-03-28T21:11:00.578Z,2.49
2023-03-28T21:13:33.135Z,2.47
2023-03-28T21:16:05.917Z,2.46
2023-03-28T21:18:38.401Z,2.45
2023-03-28T21:21:12.726Z,2.45
2023-03-28T21:23:46.796Z,2.43
2023-03-28T21:26:21.247Z,2.43
2023-03-28T21:28:54.751Z,2.54
2023-03-28T21:31:29.290Z,2.63
2023-03-28T21:34:02.216Z,2.69
2023-03-28T21:36:34.837Z,2.70
2023-03-28T21:39:07.956Z,2.67
2023-03-28T21:41:40.296Z,2.63
2023-03-28T21:44:12.597Z,2.58
2023-03-28T21:46:44.934Z,2.54
2023-03-28T21:49:18.252Z,2.50
2023-03-28T21:51:50.620Z,2.45
2023-03-28T21:54:23.263Z,2.41
2023-03-28T21:56:55.859Z,2.36
2023-03-28T21:59:28.335Z,2.33
2023-03-28T22:02:01.062Z,2.31
2023-03-28T22:04:33.648Z,2.27
2023-03-28T22:07:06.338Z,2.25
2023-03-28T22:09:39.346Z,2.24
2023-03-28T22:12:11.738Z,2.22
2023-03-28T22:14:44.077Z,2.20
2023-03-28T22:17:16.389Z,2.20
2023-03-28T22:19:50.113Z,2.21
2023-03-28T22:22:28.250Z,2.21
2023-03-28T22:25:00.646Z,2.23
2023-03-28T22:27:34.977Z,2.23
2023-03-28T22:30:11.761Z,2.23
2023-03-28T22:32:44.291Z,2.20
2023-03-28T22:35:16.773Z,2.19
2023-03-28T22:37:49.066Z,2.18
2023-03-28T22:40:22.260Z,2.19
2023-03-28T22:42:55.049Z,2.17
2023-03-28T22:45:27.726Z,2.14
2023-03-28T22:48:03.284Z,2.11
2023-03-28T22:50:35.626Z,2.11
2023-03-28T22:53:08.212Z,2.09
2023-03-28T22:55:41.874Z,2.08
2023-03-28T22:58:15.130Z,2.09
2023-03-28T23:00:47.638Z,2.09
2023-03-28T23:03:20.045Z,2.09
2023-03-28T23:05:55.233Z,2.07
2023-03-28T23:08:28.356Z,2.06
2023-03-28T23:11:00.961Z,2.06
2023-03-28T23:13:33.519Z,2.03
2023-03-28T23:16:07.297Z,2.02
2023-03-28T23:18:39.674Z,2.03
2023-03-28T23:21:12.152Z,2.04
2023-03-28T23:23:46.511Z,2.02
2023-03-28T23:26:19.080Z,1.99
2023-03-28T23:28:51.705Z,1.98
2023-03-28T23:31:24.087Z,1.99
2023-03-28T23:33:56.462Z,1.98
2023-03-28T23:36:30.209Z,1.99
2023-03-28T23:39:02.813Z,1.98
2023-03-28T23:41:35.283Z,1.99
2023-03-28T23:44:07.930Z,1.99
2023-03-28T23:46:40.658Z,1.99
2023-03-28T23:49:12.906Z,1.98
2023-03-28T23:51:46.215Z,1.97
2023-03-28T23:54:18.794Z,1.96
2023-03-28T23:56:51.659Z,1.95
2023-03-28T23:59:25.287Z,1.95
